Time;durP1;ratioP1;P1;durP2;ratioP2;P2;SDS_P1;SDS_P2;PMS_P1;PMS_P2;Temp;Humidity;BMP_temperature;BMP_pressure;BME280_temperature;BME280_humidity;BME280_pressure;Samples;Min_cycle;Max_cycle;Signal;HPM_P1;HPM_P2
2021/01/11 00:02:21;;;;;;;155.30;85.38;;;16.60;56.80;;;;;;5115853;28;20031;-58
2021/01/11 00:04:47;;;;;;;154.73;84.05;;;16.70;56.90;;;;;;5115906;28;20074;-58
2021/01/11 00:07:13;;;;;;;149.40;81.35;;;16.70;57.10;;;;;;5115671;28;20032;-59
2021/01/11 00:09:39;;;;;;;140.80;81.70;;;16.60;56.90;;;;;;5115469;27;20571;-58
2021/01/11 00:12:06;;;;;;;148.68;77.75;;;16.50;57.00;;;;;;5115283;28;20051;-58
2021/01/11 00:14:32;;;;;;;145.93;78.32;;;16.50;56.90;;;;;;5115823;28;20024;-58
2021/01/11 00:16:57;;;;;;;143.65;78.20;;;16.60;56.70;;;;;;5115743;28;20039;-58
2021/01/11 00:19:23;;;;;;;143.82;79.05;;;16.60;56.50;;;;;;5115507;28;20385;-58
2021/01/11 00:21:49;;;;;;;135.68;75.40;;;16.80;56.30;;;;;;5115453;28;20036;-59
2021/01/11 00:24:15;;;;;;;140.82;75.30;;;17.00;56.00;;;;;;5115201;28;20116;-58
2021/01/11 00:26:47;;;;;;;133.40;73.25;;;17.10;55.30;;;;;;5115508;28;20024;-58
2021/01/11 00:29:13;;;;;;;134.25;69.97;;;17.30;54.90;;;;;;5115630;28;20027;-58
2021/01/11 00:31:39;;;;;;;128.18;68.82;;;17.40;54.40;;;;;;5115339;28;20552;-59
2021/01/11 00:34:04;;;;;;;133.82;70.28;;;17.50;54.10;;;;;;5115194;28;20492;-58
2021/01/11 00:36:30;;;;;;;127.50;70.55;;;17.50;54.30;;;;;;5115057;28;20020;-59
2021/01/11 00:38:56;;;;;;;124.35;66.45;;;17.40;54.40;;;;;;5115085;28;20066;-59
2021/01/11 00:41:22;;;;;;;115.38;64.03;;;17.30;54.30;;;;;;5113977;28;20384;-59
2021/01/11 00:43:48;;;;;;;124.47;66.75;;;17.40;54.00;;;;;;5114960;28;20491;-59
2021/01/11 00:46:26;;;;;;;114.32;65.95;;;17.50;53.60;;;;;;5114956;28;20106;-59
2021/01/11 00:48:51;;;;;;;116.20;63.08;;;17.50;53.30;;;;;;5114833;28;20378;-59
2021/01/11 00:51:17;;;;;;;107.70;61.40;;;17.50;53.50;;;;;;5114798;28;20035;-59
2021/01/11 00:53:44;;;;;;;104.00;60.72;;;17.50;53.50;;;;;;5115147;28;20039;-59
2021/01/11 00:56:19;;;;;;;111.47;62.38;;;17.50;53.60;;;;;;5114778;28;20469;-59
2021/01/11 00:58:46;;;;;;;107.72;60.47;;;17.50;53.60;;;;;;5115005;28;20076;-59
2021/01/11 01:01:15;;;;;;;111.90;59.88;;;17.50;53.60;;;;;;5114597;28;20027;-59
2021/01/11 01:03:42;;;;;;;104.45;59.42;;;17.50;53.60;;;;;;5114561;28;20031;-59
2021/01/11 01:06:12;;;;;;;98.90;57.20;;;17.40;53.70;;;;;;5115000;28;20028;-59
2021/01/11 01:08:37;;;;;;;98.77;55.40;;;17.30;53.70;;;;;;5114445;28;20039;-59
2021/01/11 01:11:03;;;;;;;104.05;59.35;;;17.30;53.70;;;;;;5113416;28;20096;-67
2021/01/11 01:13:29;;;;;;;95.30;54.25;;;17.30;53.70;;;;;;5111765;28;20036;-61
2021/01/11 01:15:54;;;;;;;99.63;53.53;;;17.30;53.80;;;;;;5112676;28;20034;-59
2021/01/11 01:18:20;;;;;;;95.07;50.50;;;17.30;53.80;;;;;;5112664;28;20423;-60
2021/01/11 01:20:47;;;;;;;95.25;52.17;;;17.30;53.80;;;;;;5113917;28;20061;-58
2021/01/11 01:23:12;;;;;;;93.82;52.03;;;17.20;53.80;;;;;;5114521;28;20062;-58
2021/01/11 01:25:38;;;;;;;94.75;49.28;;;17.30;53.90;;;;;;5114099;28;20442;-58
2021/01/11 01:28:03;;;;;;;91.70;51.40;;;17.40;53.70;;;;;;5114101;28;20024;-58
2021/01/11 01:30:29;;;;;;;88.80;49.15;;;17.30;53.80;;;;;;5114225;28;20034;-59
2021/01/11 01:32:56;;;;;;;87.07;48.58;;;17.30;53.90;;;;;;5114196;28;20027;-59
2021/01/11 01:35:21;;;;;;;85.20;48.70;;;17.30;53.90;;;;;;5114260;28;20488;-58
2021/01/11 01:37:47;;;;;;;86.60;47.70;;;17.30;54.00;;;;;;5114092;28;20024;-58
2021/01/11 01:40:13;;;;;;;82.05;44.00;;;17.30;53.80;;;;;;5114240;28;20024;-59
2021/01/11 01:42:38;;;;;;;90.90;47.65;;;17.30;53.70;;;;;;5114142;28;20031;-59
2021/01/11 01:45:05;;;;;;;84.65;45.97;;;17.20;53.70;;;;;;5114068;28;20043;-59
2021/01/11 01:47:32;;;;;;;87.13;44.72;;;17.10;53.80;;;;;;5113852;28;20028;-59
2021/01/11 01:49:58;;;;;;;73.32;42.10;;;17.10;53.90;;;;;;5113953;28;20028;-59
2021/01/11 01:52:23;;;;;;;77.97;43.78;;;17.00;54.00;;;;;;5113867;28;20024;-58
2021/01/11 01:54:49;;;;;;;71.65;42.30;;;17.00;54.10;;;;;;5114262;28;20516;-58
2021/01/11 01:57:17;;;;;;;72.70;41.70;;;16.90;54.10;;;;;;5114110;28;20023;-59
2021/01/11 01:59:47;;;;;;;73.53;41.80;;;16.90;54.20;;;;;;5113915;28;20354;-59
2021/01/11 02:02:14;;;;;;;74.80;41.90;;;16.90;54.30;;;;;;5113855;28;20036;-58
2021/01/11 02:04:43;;;;;;;68.53;40.08;;;16.80;54.30;;;;;;5114257;28;20038;-58
2021/01/11 02:07:35;;;;;;;77.55;39.83;;;16.90;54.30;;;;;;5113960;28;20027;-58
2021/01/11 02:10:13;;;;;;;62.08;35.08;;;16.80;54.40;;;;;;5107841;28;20376;-59
2021/01/11 02:12:56;;;;;;;66.95;36.92;;;16.80;54.50;;;;;;5113727;28;20027;-58
2021/01/11 02:15:31;;;;;;;65.82;37.60;;;16.80;54.40;;;;;;5113711;28;20020;-58
2021/01/11 02:18:04;;;;;;;68.10;37.20;;;16.80;54.40;;;;;;5113924;28;20035;-58
2021/01/11 02:20:48;;;;;;;65.82;37.00;;;16.90;54.00;;;;;;5113706;28;20115;-59
2021/01/11 02:23:24;;;;;;;66.18;36.05;;;16.90;54.00;;;;;;5114345;28;20028;-58
2021/01/11 02:26:28;;;;;;;61.05;34.25;;;16.90;54.10;;;;;;5113620;28;20023;-58
2021/01/11 02:29:12;;;;;;;60.65;32.97;;;17.00;53.90;;;;;;5113496;28;20595;-59
2021/01/11 02:31:39;;;;;;;61.95;34.60;;;17.00;53.70;;;;;;5113996;28;20024;-58
2021/01/11 02:34:06;;;;;;;59.05;33.55;;;17.00;53.80;;;;;;5113418;28;20043;-58
2021/01/11 02:36:33;;;;;;;58.53;32.88;;;17.30;53.40;;;;;;5113654;28;20354;-58
2021/01/11 02:38:59;;;;;;;53.05;30.20;;;17.40;52.90;;;;;;5113370;28;20081;-58
2021/01/11 02:41:25;;;;;;;52.72;30.52;;;17.60;52.60;;;;;;5113527;28;20427;-59
2021/01/11 02:43:50;;;;;;;51.80;29.77;;;17.70;52.40;;;;;;5113744;28;20462;-58
2021/01/11 02:46:16;;;;;;;56.78;29.80;;;17.70;52.50;;;;;;5114254;28;20024;-58
2021/01/11 02:48:52;;;;;;;51.90;28.42;;;17.60;52.20;;;;;;5117302;28;20023;-58
2021/01/11 02:51:52;;;;;;;55.08;29.75;;;17.60;52.20;;;;;;5117315;28;20027;-58
2021/01/11 02:54:27;;;;;;;50.08;28.75;;;17.60;52.10;;;;;;5117393;27;20071;-58
2021/01/11 02:57:03;;;;;;;52.20;29.77;;;17.50;52.10;;;;;;5116864;28;20072;-58
2021/01/11 02:59:34;;;;;;;51.97;27.92;;;17.50;52.10;;;;;;5117350;28;20023;-58
2021/01/11 03:02:07;;;;;;;53.03;29.58;;;17.50;52.30;;;;;;5116891;28;20404;-59
2021/01/11 03:04:34;;;;;;;48.85;27.27;;;17.40;52.20;;;;;;5117372;28;20435;-58
2021/01/11 03:07:01;;;;;;;48.08;27.42;;;17.40;52.30;;;;;;5116932;28;20073;-58
2021/01/11 03:09:28;;;;;;;45.55;27.67;;;17.40;52.40;;;;;;5116622;28;20114;-58
2021/01/11 03:11:54;;;;;;;48.58;27.02;;;17.30;52.40;;;;;;5116223;28;20056;-66
2021/01/11 03:14:19;;;;;;;44.45;26.02;;;17.30;52.30;;;;;;5115332;28;20027;-59
2021/01/11 03:16:45;;;;;;;45.97;25.50;;;17.30;52.50;;;;;;5115507;28;20031;-59
2021/01/11 03:19:11;;;;;;;40.53;24.95;;;17.20;52.50;;;;;;5115482;28;20069;-58
2021/01/11 03:21:37;;;;;;;43.55;24.33;;;17.20;52.50;;;;;;5116853;28;20031;-58
2021/01/11 03:24:04;;;;;;;47.25;25.13;;;17.20;52.50;;;;;;5116608;28;20032;-58
2021/01/11 03:26:30;;;;;;;42.53;24.08;;;17.20;52.60;;;;;;5116520;28;20034;-58
2021/01/11 03:28:55;;;;;;;44.45;24.15;;;17.10;52.60;;;;;;5116555;28;20032;-58
2021/01/11 03:31:22;;;;;;;40.75;22.92;;;17.10;52.60;;;;;;5116431;28;20048;-59
2021/01/11 03:33:48;;;;;;;43.67;24.30;;;17.10;52.70;;;;;;5116364;28;20043;-58
2021/01/11 03:36:15;;;;;;;42.33;23.27;;;17.10;52.80;;;;;;5116713;28;20028;-58
2021/01/11 03:38:41;;;;;;;39.63;22.55;;;17.10;52.80;;;;;;5116335;28;20115;-58
2021/01/11 03:41:08;;;;;;;37.55;23.10;;;17.10;53.00;;;;;;5116279;28;20030;-58
2021/01/11 03:43:36;;;;;;;36.28;22.02;;;17.10;53.00;;;;;;5116206;28;20031;-59
2021/01/11 03:46:02;;;;;;;38.58;20.40;;;17.00;53.00;;;;;;5116157;28;20469;-58
2021/01/11 03:48:27;;;;;;;40.22;21.63;;;17.00;53.20;;;;;;5116117;28;20036;-58
2021/01/11 03:50:53;;;;;;;37.30;21.85;;;17.00;53.10;;;;;;5116037;28;20023;-58
2021/01/11 03:53:18;;;;;;;37.42;20.75;;;16.90;53.20;;;;;;5116176;28;20032;-58
2021/01/11 03:55:44;;;;;;;35.35;19.95;;;17.00;53.50;;;;;;5116039;28;20031;-58
2021/01/11 03:58:10;;;;;;;34.22;20.23;;;16.90;52.90;;;;;;5114625;28;20028;-58
2021/01/11 04:00:35;;;;;;;36.50;19.80;;;16.90;53.60;;;;;;5115656;28;20028;-58
2021/01/11 04:03:05;;;;;;;32.78;18.45;;;16.80;52.90;;;;;;5115787;28;20092;-58
2021/01/11 04:05:31;;;;;;;32.25;20.42;;;16.80;53.10;;;;;;5115556;28;20069;-58
2021/01/11 04:07:57;;;;;;;33.40;19.40;;;16.80;53.00;;;;;;5115568;28;20023;-58
2021/01/11 04:10:24;;;;;;;30.55;17.33;;;16.80;52.90;;;;;;5115641;28;20050;-58
2021/01/11 04:12:50;;;;;;;33.50;18.30;;;16.90;52.60;;;;;;5115511;28;20048;-58
2021/01/11 04:15:16;;;;;;;31.77;19.02;;;17.00;52.60;;;;;;5115501;28;20350;-58
2021/01/11 04:17:42;;;;;;;30.08;17.17;;;16.90;52.70;;;;;;5115331;28;20028;-58
2021/01/11 04:20:08;;;;;;;33.17;17.50;;;16.90;52.70;;;;;;5115603;28;20116;-58
2021/01/11 04:22:33;;;;;;;27.80;15.70;;;17.00;52.40;;;;;;5115944;28;20424;-58
2021/01/11 04:24:59;;;;;;;27.65;16.65;;;17.10;52.40;;;;;;5115401;28;20084;-58
2021/01/11 04:27:25;;;;;;;28.55;15.80;;;17.10;52.20;;;;;;5115254;28;20378;-59
2021/01/11 04:29:50;;;;;;;28.77;16.60;;;17.20;52.00;;;;;;5115084;28;20085;-58
2021/01/11 04:32:16;;;;;;;29.80;17.65;;;17.30;51.90;;;;;;5115723;28;20042;-58
2021/01/11 04:34:41;;;;;;;26.02;14.82;;;17.30;51.80;;;;;;5115066;28;20483;-58
2021/01/11 04:37:08;;;;;;;28.27;16.35;;;17.30;51.70;;;;;;5115090;28;20031;-58
2021/01/11 04:39:34;;;;;;;31.25;16.63;;;17.30;51.70;;;;;;5115189;28;20469;-58
2021/01/11 04:42:02;;;;;;;28.20;15.57;;;17.30;51.70;;;;;;5115011;28;20031;-59
2021/01/11 04:44:29;;;;;;;26.33;14.50;;;17.30;51.70;;;;;;5115041;28;20037;-58
2021/01/11 04:46:55;;;;;;;25.35;14.75;;;17.30;51.90;;;;;;5114799;28;20084;-58
2021/01/11 04:49:21;;;;;;;25.70;14.57;;;17.40;51.80;;;;;;5114871;28;20028;-58
2021/01/11 04:51:47;;;;;;;24.67;14.00;;;17.50;51.40;;;;;;5114818;28;20491;-58
2021/01/11 04:54:17;;;;;;;29.08;15.70;;;17.70;51.10;;;;;;5114581;28;20465;-58
2021/01/11 04:56:46;;;;;;;23.88;13.73;;;17.70;51.00;;;;;;5114549;28;20411;-58
2021/01/11 04:59:17;;;;;;;23.33;13.02;;;17.70;51.00;;;;;;5115026;28;20027;-58
2021/01/11 05:01:43;;;;;;;25.13;13.82;;;18.30;50.40;;;;;;5114802;28;20020;-58
2021/01/11 05:04:13;;;;;;;25.27;13.48;;;17.50;50.80;;;;;;5114578;28;20028;-58
2021/01/11 05:06:47;;;;;;;24.40;13.18;;;17.50;50.80;;;;;;5114735;28;20104;-58
2021/01/11 05:09:14;;;;;;;21.25;11.55;;;17.60;50.70;;;;;;5114325;28;20039;-58
2021/01/11 05:11:40;;;;;;;21.25;12.20;;;17.70;50.40;;;;;;5114623;28;20047;-58
2021/01/11 05:14:06;;;;;;;22.25;13.15;;;17.70;50.30;;;;;;5112325;28;20034;-60
2021/01/11 05:16:32;;;;;;;27.58;14.50;;;17.80;50.30;;;;;;5113084;28;20032;-58
2021/01/11 05:19:23;;;;;;;22.38;13.15;;;17.80;50.30;;;;;;5113054;28;20027;-58
2021/01/11 05:21:51;;;;;;;22.10;10.90;;;17.90;50.10;;;;;;5114421;28;20027;-58
2021/01/11 05:24:29;;;;;;;21.63;10.98;;;17.90;50.00;;;;;;5114318;28;20030;-58
2021/01/11 05:26:59;;;;;;;19.98;11.70;;;17.90;49.90;;;;;;5114314;28;20368;-58
2021/01/11 05:29:25;;;;;;;21.70;11.05;;;18.10;49.80;;;;;;5114054;28;20024;-58
2021/01/11 05:31:57;;;;;;;21.27;12.27;;;18.10;49.50;;;;;;5112880;28;20038;-58
2021/01/11 05:34:23;;;;;;;21.73;11.35;;;18.20;49.40;;;;;;5114712;28;20027;-58
2021/01/11 05:36:50;;;;;;;18.85;11.48;;;18.20;49.10;;;;;;5114354;28;20504;-58
2021/01/11 05:39:16;;;;;;;16.52;10.27;;;18.20;49.10;;;;;;5114003;28;20053;-58
2021/01/11 05:41:42;;;;;;;19.35;10.25;;;18.30;48.90;;;;;;5113952;28;20028;-58
2021/01/11 05:44:12;;;;;;;18.30;10.57;;;18.30;48.80;;;;;;5114066;28;20084;-58
2021/01/11 05:46:39;;;;;;;18.58;9.77;;;18.50;48.70;;;;;;5114451;28;20031;-58
2021/01/11 05:49:13;;;;;;;17.92;10.80;;;18.50;48.60;;;;;;5113871;28;20028;-59
2021/01/11 05:51:39;;;;;;;17.02;10.55;;;18.60;48.40;;;;;;5114080;28;20023;-58
2021/01/11 05:54:06;;;;;;;17.38;9.30;;;18.70;48.20;;;;;;5113941;28;20042;-58
2021/01/11 05:56:57;;;;;;;16.20;9.93;;;18.70;48.20;;;;;;5113959;28;20028;-58
2021/01/11 05:59:24;;;;;;;16.60;9.50;;;18.70;48.20;;;;;;5114412;28;20118;-58
2021/01/11 06:01:58;;;;;;;17.30;9.02;;;18.90;47.80;;;;;;5113856;28;20028;-58
2021/01/11 06:04:24;;;;;;;17.17;9.13;;;19.10;47.50;;;;;;5114051;28;20064;-58
2021/01/11 06:06:53;;;;;;;17.10;9.93;;;19.00;47.50;;;;;;5113705;28;20369;-59
2021/01/11 06:09:20;;;;;;;13.95;8.60;;;19.00;47.60;;;;;;5113677;28;20032;-58
2021/01/11 06:11:49;;;;;;;14.88;8.55;;;19.00;47.40;;;;;;5114056;28;20094;-59
2021/01/11 06:14:19;;;;;;;16.05;9.35;;;19.10;47.80;;;;;;5113653;28;20039;-59
2021/01/11 06:16:44;;;;;;;13.93;8.65;;;19.10;47.50;;;;;;5114079;28;20024;-59
2021/01/11 06:19:10;;;;;;;15.73;8.95;;;19.00;47.40;;;;;;5113755;28;20036;-58
2021/01/11 06:21:36;;;;;;;17.13;8.80;;;19.10;47.30;;;;;;5114891;28;20028;-58
2021/01/11 06:24:21;;;;;;;16.73;9.07;;;19.10;47.40;;;;;;5117824;28;20019;-59
2021/01/11 06:26:47;;;;;;;15.20;7.95;;;19.00;47.60;;;;;;5117333;28;20178;-59
2021/01/11 06:29:33;;;;;;;15.32;8.63;;;18.90;47.60;;;;;;5117672;28;20061;-59
2021/01/11 06:32:23;;;;;;;14.25;8.05;;;18.90;47.60;;;;;;5117606;28;20027;-59
2021/01/11 06:34:49;;;;;;;15.87;8.33;;;18.80;47.70;;;;;;5117607;28;20042;-59
2021/01/11 06:37:22;;;;;;;15.93;9.52;;;18.80;47.80;;;;;;5117583;28;20507;-59
2021/01/11 06:39:48;;;;;;;11.73;7.70;;;18.80;47.90;;;;;;5117300;28;20617;-59
2021/01/11 06:42:16;;;;;;;12.85;7.80;;;18.80;48.00;;;;;;5117439;28;20033;-58
2021/01/11 06:44:48;;;;;;;13.65;7.55;;;18.70;48.20;;;;;;5117309;28;20120;-59
2021/01/11 06:47:27;;;;;;;12.73;6.85;;;18.70;48.30;;;;;;5117127;28;20039;-59
2021/01/11 06:50:02;;;;;;;14.10;8.10;;;18.60;48.30;;;;;;5117280;28;20181;-59
2021/01/11 06:52:36;;;;;;;13.13;7.05;;;18.50;48.50;;;;;;5117377;28;20106;-58
2021/01/11 06:55:22;;;;;;;14.07;8.45;;;18.50;48.70;;;;;;5117213;28;20373;-59
2021/01/11 06:57:49;;;;;;;12.02;6.78;;;18.40;48.80;;;;;;5116885;28;20036;-59
2021/01/11 07:00:18;;;;;;;12.85;6.80;;;18.40;48.90;;;;;;5116909;28;20024;-59
2021/01/11 07:02:44;;;;;;;13.27;7.32;;;18.40;49.20;;;;;;5116778;28;20055;-58
2021/01/11 07:05:35;;;;;;;12.43;7.60;;;18.30;49.20;;;;;;5116867;28;20093;-58
2021/01/11 07:08:18;;;;;;;12.80;8.02;;;18.30;49.40;;;;;;5116591;28;20487;-58
2021/01/11 07:10:44;;;;;;;12.68;7.50;;;18.30;49.30;;;;;;5116561;28;20054;-59
2021/01/11 07:13:19;;;;;;;10.68;6.38;;;18.30;49.10;;;;;;5116565;28;20032;-59
2021/01/11 07:15:51;;;;;;;10.35;6.38;;;18.20;49.20;;;;;;5114454;28;20028;-59
2021/01/11 07:18:38;;;;;;;12.02;6.45;;;18.10;49.20;;;;;;5116150;28;20020;-62
2021/01/11 07:21:11;;;;;;;10.75;5.88;;;18.10;49.40;;;;;;5114413;28;20027;-59
2021/01/11 07:23:37;;;;;;;13.20;7.22;;;18.10;49.50;;;;;;5116268;28;20110;-59
2021/01/11 07:26:03;;;;;;;12.80;7.13;;;18.00;49.50;;;;;;5116455;28;20503;-58
2021/01/11 07:28:29;;;;;;;11.38;6.55;;;18.10;49.30;;;;;;5116551;28;20051;-58
2021/01/11 07:30:55;;;;;;;10.40;6.40;;;18.20;49.10;;;;;;5116457;28;20097;-59
2021/01/11 07:33:24;;;;;;;8.90;5.28;;;18.20;49.00;;;;;;5116272;28;20495;-59
2021/01/11 07:35:50;;;;;;;10.43;6.60;;;18.30;48.80;;;;;;5116382;28;20512;-58
2021/01/11 07:38:20;;;;;;;12.40;6.75;;;18.30;48.80;;;;;;5116173;28;20495;-59
2021/01/11 07:40:45;;;;;;;11.23;6.25;;;18.40;48.60;;;;;;5116240;28;20034;-59
2021/01/11 07:43:11;;;;;;;8.98;5.55;;;18.50;48.60;;;;;;5116273;28;20027;-59
2021/01/11 07:45:36;;;;;;;10.68;6.25;;;18.50;48.50;;;;;;5116015;28;20519;-59
2021/01/11 07:48:02;;;;;;;10.45;5.82;;;18.50;48.40;;;;;;5116136;28;20024;-59
2021/01/11 07:50:31;;;;;;;9.48;5.85;;;18.60;48.20;;;;;;5115996;28;20103;-59
2021/01/11 07:52:57;;;;;;;9.65;5.55;;;18.70;48.10;;;;;;5115913;28;20055;-59
2021/01/11 07:55:29;;;;;;;11.45;6.85;;;18.70;48.10;;;;;;5115976;28;20499;-59
2021/01/11 07:58:02;;;;;;;10.02;5.30;;;18.70;48.00;;;;;;5115979;28;20106;-59
2021/01/11 08:00:28;;;;;;;8.98;5.53;;;18.70;47.30;;;;;;5116045;28;20032;-59
2021/01/11 08:02:55;;;;;;;10.45;6.40;;;18.70;48.00;;;;;;5115802;28;20389;-59
2021/01/11 08:05:22;;;;;;;9.80;5.85;;;18.70;48.20;;;;;;5115763;28;20477;-58
2021/01/11 08:08:09;;;;;;;10.50;5.75;;;18.70;48.10;;;;;;5115574;28;20031;-59
2021/01/11 08:10:35;;;;;;;11.25;6.20;;;18.50;48.50;;;;;;5115129;28;20396;-59
2021/01/11 08:13:08;;;;;;;8.82;5.32;;;18.60;48.50;;;;;;5115585;28;20076;-55
2021/01/11 08:15:33;;;;;;;13.07;6.00;;;18.60;48.10;;;;;;5115635;28;20053;-58
2021/01/11 08:18:01;;;;;;;16.80;6.28;;;18.60;49.10;;;;;;5115372;28;20532;-58
2021/01/11 08:20:27;;;;;;;13.18;6.38;;;18.50;50.20;;;;;;5115249;28;20027;-57
2021/01/11 08:22:53;;;;;;;10.65;6.35;;;18.50;50.70;;;;;;5115709;28;20027;-57
2021/01/11 08:25:20;;;;;;;12.73;6.60;;;18.50;51.80;;;;;;5115361;28;20069;-59
2021/01/11 08:27:49;;;;;;;15.48;6.80;;;18.50;51.50;;;;;;5115091;28;20024;-60
2021/01/11 08:30:16;;;;;;;14.68;6.07;;;18.50;51.20;;;;;;5115599;28;20027;-58
2021/01/11 08:32:43;;;;;;;15.75;6.18;;;18.40;51.00;;;;;;5114876;28;20040;-59
2021/01/11 08:35:12;;;;;;;12.02;6.15;;;18.30;50.90;;;;;;5115186;28;20028;-58
2021/01/11 08:37:38;;;;;;;9.55;5.32;;;18.30;50.90;;;;;;5115011;28;20055;-58
2021/01/11 08:40:25;;;;;;;11.20;5.95;;;18.20;51.20;;;;;;5115000;28;20027;-58
2021/01/11 08:42:51;;;;;;;12.00;7.10;;;18.20;51.20;;;;;;5115144;28;20032;-59
2021/01/11 08:45:26;;;;;;;10.70;5.68;;;18.20;51.20;;;;;;5114484;28;20354;-59
2021/01/11 08:48:23;;;;;;;14.38;8.98;;;18.20;51.20;;;;;;5114507;28;20489;-58
2021/01/11 08:50:52;;;;;;;24.55;15.52;;;18.10;50.30;;;;;;5114384;28;20031;-57
2021/01/11 08:53:21;;;;;;;28.25;20.88;;;18.10;49.40;;;;;;5114861;28;20032;-52
2021/01/11 08:55:55;;;;;;;182.57;92.68;;;18.20;48.50;;;;;;5114653;28;20036;-56
2021/01/11 08:58:20;;;;;;;90.00;53.70;;;18.20;48.00;;;;;;5113851;28;20396;-59
2021/01/11 09:00:46;;;;;;;157.05;94.43;;;18.20;47.50;;;;;;5114051;28;20103;-59
2021/01/11 09:03:12;;;;;;;220.80;110.10;;;18.20;46.70;;;;;;5114464;28;20031;-55
2021/01/11 09:05:38;;;;;;;125.45;70.57;;;18.20;45.80;;;;;;5113752;28;20027;-60
2021/01/11 09:08:18;;;;;;;126.57;67.60;;;18.10;44.60;;;;;;5114475;28;20032;-56
2021/01/11 09:10:45;;;;;;;51.72;29.70;;;17.90;40.80;;;;;;5113342;28;20043;-58
2021/01/11 09:13:19;;;;;;;37.63;22.27;;;17.60;40.00;;;;;;5114486;27;20036;-58
2021/01/11 09:15:46;;;;;;;29.20;19.15;;;17.40;37.70;;;;;;5114754;28;20071;-59
2021/01/11 09:18:13;;;;;;;27.27;16.85;;;17.40;36.10;;;;;;5114529;28;20028;-58
2021/01/11 09:20:40;;;;;;;27.17;15.23;;;17.40;35.70;;;;;;5113896;28;20028;-58
2021/01/11 09:23:06;;;;;;;22.35;14.00;;;17.40;35.20;;;;;;5114322;28;20020;-59
2021/01/11 09:25:33;;;;;;;20.25;12.93;;;17.30;34.90;;;;;;5112171;28;20024;-60
2021/01/11 09:28:00;;;;;;;16.33;11.10;;;17.30;35.40;;;;;;5111985;27;20054;-59
2021/01/11 09:30:28;;;;;;;18.13;10.07;;;17.40;34.30;;;;;;5112017;28;20032;-58
2021/01/11 09:32:53;;;;;;;16.38;9.13;;;17.40;33.80;;;;;;5111985;28;20045;-59
2021/01/11 09:35:20;;;;;;;17.00;10.35;;;17.40;33.40;;;;;;5112093;28;20035;-59
2021/01/11 09:37:46;;;;;;;14.50;9.07;;;17.40;31.90;;;;;;5112242;28;20023;-59
2021/01/11 09:40:12;;;;;;;14.88;8.95;;;17.40;32.50;;;;;;5112511;28;20047;-56
2021/01/11 09:42:38;;;;;;;18.15;9.27;;;17.40;33.80;;;;;;5113710;28;20039;-56
2021/01/11 09:45:05;;;;;;;16.35;8.93;;;17.40;35.80;;;;;;5114142;28;20145;-55
2021/01/11 09:47:31;;;;;;;18.77;10.18;;;17.30;37.80;;;;;;5113856;28;20019;-55
2021/01/11 09:49:57;;;;;;;16.98;9.52;;;17.40;39.10;;;;;;5114009;28;20505;-55
2021/01/11 09:52:23;;;;;;;19.95;10.57;;;17.40;40.50;;;;;;5114244;28;20035;-55
2021/01/11 09:54:49;;;;;;;15.73;10.40;;;17.50;41.60;;;;;;5113878;28;20074;-55
2021/01/11 09:57:15;;;;;;;17.95;10.85;;;17.50;42.60;;;;;;5116406;28;20385;-56
2021/01/11 09:59:41;;;;;;;15.55;10.32;;;17.60;43.50;;;;;;5117295;28;20526;-56
2021/01/11 10:02:08;;;;;;;20.58;11.18;;;17.70;44.30;;;;;;5118016;28;20027;-56
2021/01/11 10:04:34;;;;;;;18.83;10.82;;;17.70;45.10;;;;;;5118508;28;20435;-56
2021/01/11 10:07:00;;;;;;;21.02;10.68;;;17.90;45.80;;;;;;5117969;28;20068;-56
2021/01/11 10:09:28;;;;;;;17.35;10.48;;;17.90;46.40;;;;;;5118488;27;20028;-56
2021/01/11 10:11:56;;;;;;;20.05;11.70;;;18.00;47.10;;;;;;5117848;28;20501;-56
2021/01/11 10:14:22;;;;;;;19.45;10.80;;;18.10;47.40;;;;;;5117828;28;20031;-55
2021/01/11 10:16:49;;;;;;;19.33;11.27;;;18.90;48.30;;;;;;5117957;27;20039;-56
2021/01/11 10:19:35;;;;;;;16.33;10.25;;;18.30;48.60;;;;;;5117706;28;20032;-56
2021/01/11 10:22:02;;;;;;;19.00;10.50;;;18.40;48.90;;;;;;5117825;28;20127;-56
2021/01/11 10:24:27;;;;;;;15.25;9.32;;;18.60;49.30;;;;;;5117774;28;20031;-56
2021/01/11 10:26:53;;;;;;;20.35;10.32;;;18.60;49.60;;;;;;5117544;28;20161;-56
2021/01/11 10:29:22;;;;;;;17.58;10.63;;;18.70;49.60;;;;;;5117664;28;20077;-56
2021/01/11 10:31:48;;;;;;;17.05;10.48;;;18.70;49.90;;;;;;5118076;28;20087;-56
2021/01/11 10:34:17;;;;;;;15.57;8.98;;;18.70;50.20;;;;;;5117550;28;20035;-57
2021/01/11 10:36:47;;;;;;;16.02;10.15;;;18.80;50.60;;;;;;5117420;28;20043;-57
2021/01/11 10:39:14;;;;;;;19.60;9.98;;;18.80;50.70;;;;;;5117455;28;20036;-58
2021/01/11 10:41:40;;;;;;;15.93;9.48;;;18.80;51.10;;;;;;5117460;28;20067;-58
2021/01/11 10:44:06;;;;;;;16.58;9.77;;;18.80;51.30;;;;;;5117610;28;20469;-59
2021/01/11 10:46:36;;;;;;;17.92;9.38;;;18.80;51.50;;;;;;5117261;28;20038;-58
2021/01/11 10:49:04;;;;;;;19.88;9.63;;;18.70;51.50;;;;;;5117379;28;20024;-59
2021/01/11 10:51:33;;;;;;;15.15;10.00;;;18.80;51.60;;;;;;5117434;28;20373;-58
2021/01/11 10:53:59;;;;;;;12.88;8.90;;;18.80;51.80;;;;;;5116901;28;20041;-57
2021/01/11 10:56:25;;;;;;;15.43;9.18;;;18.80;52.10;;;;;;5116898;28;20388;-57
2021/01/11 10:58:50;;;;;;;13.30;9.05;;;18.70;52.20;;;;;;5117193;28;20024;-55
2021/01/11 11:01:16;;;;;;;15.55;8.82;;;18.80;52.40;;;;;;5117152;28;20028;-58
2021/01/11 11:03:42;;;;;;;16.42;9.07;;;18.80;52.70;;;;;;5117108;28;20027;-57
2021/01/11 11:06:08;;;;;;;17.33;8.57;;;18.70;52.40;;;;;;5116850;28;20051;-57
2021/01/11 11:08:34;;;;;;;16.40;9.40;;;18.70;52.80;;;;;;5116587;28;20078;-58
2021/01/11 11:11:00;;;;;;;19.55;9.32;;;18.60;52.90;;;;;;5116594;27;20075;-58
2021/01/11 11:13:26;;;;;;;21.17;9.93;;;18.60;52.80;;;;;;5116646;28;20453;-59
2021/01/11 11:15:52;;;;;;;16.52;8.48;;;18.70;52.90;;;;;;5116994;28;20031;-58
2021/01/11 11:18:17;;;;;;;17.38;8.73;;;18.60;52.90;;;;;;5116613;28;20053;-55
2021/01/11 11:20:45;;;;;;;17.48;9.02;;;18.70;52.70;;;;;;5116611;28;20108;-58
2021/01/11 11:23:11;;;;;;;18.25;8.30;;;18.90;52.70;;;;;;5116571;28;20024;-58
2021/01/11 11:25:37;;;;;;;22.02;9.25;;;19.00;52.40;;;;;;5116384;27;20031;-58
2021/01/11 11:28:03;;;;;;;17.52;9.38;;;19.10;52.30;;;;;;5116617;28;20031;-58
2021/01/11 11:30:29;;;;;;;21.55;8.88;;;19.10;52.10;;;;;;5117246;28;20024;-58
2021/01/11 11:32:55;;;;;;;16.58;8.68;;;19.10;52.10;;;;;;5116691;28;20028;-58
2021/01/11 11:35:21;;;;;;;23.15;9.40;;;18.90;52.20;;;;;;5116569;28;20031;-58
2021/01/11 11:37:48;;;;;;;18.42;8.30;;;18.80;52.50;;;;;;5116311;28;20028;-59
2021/01/11 11:40:15;;;;;;;19.67;8.30;;;18.70;52.80;;;;;;5116655;28;20084;-59
2021/01/11 11:42:42;;;;;;;17.13;7.80;;;18.70;52.80;;;;;;5116334;28;20070;-58
2021/01/11 11:45:11;;;;;;;14.63;7.80;;;18.60;53.10;;;;;;5116224;28;20119;-58
2021/01/11 11:47:38;;;;;;;16.00;8.00;;;18.60;53.10;;;;;;5116186;28;20027;-57
2021/01/11 11:50:07;;;;;;;17.48;7.90;;;18.60;53.30;;;;;;5115996;28;20015;-58
2021/01/11 11:52:33;;;;;;;14.45;8.15;;;18.50;53.20;;;;;;5115103;28;20020;-58
2021/01/11 11:54:59;;;;;;;15.05;7.50;;;18.50;53.30;;;;;;5115518;28;20038;-56
2021/01/11 11:57:24;;;;;;;20.88;8.90;;;18.40;53.40;;;;;;5115792;28;20027;-57
2021/01/11 11:59:50;;;;;;;15.68;8.55;;;18.40;53.50;;;;;;5115930;28;20518;-57
2021/01/11 12:02:16;;;;;;;23.23;8.45;;;18.50;54.10;;;;;;5115791;28;20047;-60
2021/01/11 12:04:42;;;;;;;15.13;8.07;;;18.60;54.70;;;;;;5115660;28;20458;-51
2021/01/11 12:07:12;;;;;;;63.53;35.17;;;18.70;56.30;;;;;;5115355;28;20020;-52
2021/01/11 12:09:38;;;;;;;81.00;48.67;;;18.60;56.60;;;;;;5115701;28;20023;-51
2021/01/11 12:12:03;;;;;;;92.80;52.20;;;18.70;56.50;;;;;;5115744;28;20054;-58
2021/01/11 12:14:29;;;;;;;74.60;40.35;;;18.60;56.20;;;;;;5115440;28;20035;-56
2021/01/11 12:16:54;;;;;;;66.15;35.40;;;18.70;55.80;;;;;;5114556;28;20512;-59
2021/01/11 12:19:20;;;;;;;76.20;44.03;;;19.00;56.30;;;;;;5113212;28;20028;-52
2021/01/11 12:21:46;;;;;;;74.70;40.58;;;19.20;58.30;;;;;;5115294;28;20070;-56
2021/01/11 12:24:12;;;;;;;76.15;47.88;;;19.30;55.30;;;;;;5115497;28;20461;-50
2021/01/11 12:26:42;;;;;;;91.30;52.35;;;19.30;55.40;;;;;;5115450;28;20038;-52
2021/01/11 12:29:09;;;;;;;97.05;57.70;;;19.20;59.90;;;;;;5115727;28;20024;-48
2021/01/11 12:31:35;;;;;;;95.53;52.40;;;19.10;64.40;;;;;;5115685;28;20521;-58
2021/01/11 12:34:01;;;;;;;85.97;51.42;;;19.00;62.40;;;;;;5115191;28;20112;-56
2021/01/11 12:36:28;;;;;;;78.75;46.58;;;19.00;57.90;;;;;;5114946;28;20062;-57
2021/01/11 12:38:55;;;;;;;70.80;42.13;;;19.10;56.00;;;;;;5115178;28;20027;-52